Time;durP1;ratioP1;P1;durP2;ratioP2;P2;SDS_P1;SDS_P2;PMS_P1;PMS_P2;Temp;Humidity;BMP_temperature;BMP_pressure;BME280_temperature;BME280_humidity;BME280_pressure;Samples;Min_cycle;Max_cycle;Signal;HPM_P1;HPM_P2
2023/05/20 00:01:34;;;;;;;6.55;3.45;;;10.60;99.90;;;;;;5016310;28;20597;-77
2023/05/20 00:04:00;;;;;;;5.03;3.63;;;10.60;99.90;;;;;;5016680;28;20245;-76
2023/05/20 00:06:26;;;;;;;8.52;3.75;;;10.60;99.90;;;;;;5015940;28;20204;-76
2023/05/20 00:08:51;;;;;;;29.92;4.80;;;10.70;99.90;;;;;;5016119;28;20172;-76
2023/05/20 00:11:17;;;;;;;26.63;6.32;;;10.70;99.90;;;;;;5015380;28;20152;-77
2023/05/20 00:13:43;;;;;;;43.90;7.28;;;10.80;99.90;;;;;;5014032;28;20180;-76
2023/05/20 00:16:09;;;;;;;39.22;6.40;;;10.70;99.90;;;;;;5014090;28;20199;-76
2023/05/20 00:18:34;;;;;;;20.95;4.70;;;10.60;99.90;;;;;;5015324;28;20176;-76
2023/05/20 00:21:00;;;;;;;26.02;6.05;;;10.50;99.90;;;;;;5015297;28;20180;-76
2023/05/20 00:23:26;;;;;;;34.15;6.63;;;10.40;99.90;;;;;;5016271;28;20246;-76
2023/05/20 00:25:51;;;;;;;32.53;6.50;;;10.40;99.90;;;;;;5014969;28;20200;-76
2023/05/20 00:28:18;;;;;;;30.20;6.32;;;10.40;99.90;;;;;;5015385;28;20176;-76
2023/05/20 00:30:44;;;;;;;34.13;5.53;;;10.50;99.90;;;;;;5016270;28;20512;-76
2023/05/20 00:33:10;;;;;;;24.05;5.60;;;10.50;99.90;;;;;;5016335;28;20192;-76
2023/05/20 00:35:36;;;;;;;31.92;6.05;;;10.50;99.90;;;;;;5015739;28;20660;-76
2023/05/20 00:38:01;;;;;;;19.83;5.70;;;10.50;99.90;;;;;;5016904;28;20179;-75
2023/05/20 00:40:27;;;;;;;30.00;5.85;;;10.50;99.90;;;;;;5016767;28;20190;-75
2023/05/20 00:42:53;;;;;;;31.08;5.50;;;10.60;99.90;;;;;;5033001;28;20643;-76
2023/05/20 00:45:19;;;;;;;18.42;5.28;;;10.50;99.90;;;;;;5035360;28;20215;-77
2023/05/20 00:47:45;;;;;;;16.70;4.20;;;10.50;99.90;;;;;;5014911;28;20320;-76
2023/05/20 00:50:11;;;;;;;17.48;5.28;;;10.50;99.90;;;;;;5014853;28;20660;-77
2023/05/20 00:52:37;;;;;;;28.08;5.63;;;10.50;99.90;;;;;;5015029;28;20183;-76
2023/05/20 00:55:03;;;;;;;22.63;4.78;;;10.50;99.90;;;;;;5014909;28;20202;-76
2023/05/20 00:57:29;;;;;;;24.85;4.80;;;10.40;99.90;;;;;;5014625;28;20171;-76
2023/05/20 00:59:56;;;;;;;21.10;5.43;;;10.40;99.90;;;;;;5014798;28;20182;-76
2023/05/20 01:02:23;;;;;;;15.20;4.50;;;10.40;99.90;;;;;;5014177;28;20759;-77
2023/05/20 01:04:49;;;;;;;12.70;4.65;;;10.30;99.90;;;;;;5014193;28;20267;-76
2023/05/20 01:07:17;;;;;;;12.90;5.13;;;10.30;99.90;;;;;;5014335;28;20327;-76
2023/05/20 01:09:44;;;;;;;14.77;4.43;;;10.10;99.90;;;;;;5014185;28;20168;-76
2023/05/20 01:12:34;;;;;;;19.67;4.97;;;10.00;99.90;;;;;;5013050;28;20179;-77
2023/05/20 01:15:10;;;;;;;13.23;4.75;;;10.10;99.90;;;;;;5013435;28;20652;-76
2023/05/20 01:17:45;;;;;;;27.88;5.47;;;10.00;99.90;;;;;;5014296;28;20634;-77
2023/05/20 01:20:13;;;;;;;19.33;4.57;;;10.00;99.90;;;;;;5013133;28;20171;-76
2023/05/20 01:22:51;;;;;;;23.65;5.65;;;9.80;99.90;;;;;;5013252;28;20295;-77
2023/05/20 01:25:17;;;;;;;21.02;5.10;;;9.60;99.90;;;;;;5014148;28;20219;-77
2023/05/20 01:27:43;;;;;;;17.38;5.00;;;9.60;99.90;;;;;;5012961;28;20238;-77
2023/05/20 01:30:10;;;;;;;19.92;5.47;;;9.40;99.90;;;;;;5013966;28;20179;-76
2023/05/20 01:32:42;;;;;;;12.25;4.80;;;9.30;99.90;;;;;;5014221;28;20679;-77
2023/05/20 01:35:09;;;;;;;14.45;5.07;;;9.30;99.90;;;;;;5013978;28;20203;-77
2023/05/20 01:37:39;;;;;;;10.57;4.47;;;9.50;99.90;;;;;;5012862;28;20180;-77
2023/05/20 01:40:07;;;;;;;12.23;4.57;;;9.40;99.90;;;;;;5014060;28;20258;-77
2023/05/20 01:42:35;;;;;;;13.43;4.15;;;9.50;99.90;;;;;;5012586;28;20207;-77
2023/05/20 01:45:02;;;;;;;14.07;4.75;;;9.50;99.90;;;;;;5012412;28;20211;-77
2023/05/20 01:47:27;;;;;;;8.27;4.43;;;9.60;99.90;;;;;;5012704;28;20179;-77
2023/05/20 01:49:53;;;;;;;6.33;4.17;;;9.60;99.90;;;;;;5014161;28;20238;-76
2023/05/20 01:52:20;;;;;;;7.28;4.32;;;9.60;99.90;;;;;;5012612;28;20176;-77
2023/05/20 01:54:50;;;;;;;4.95;3.83;;;9.60;99.90;;;;;;5012658;28;20211;-76
2023/05/20 01:57:25;;;;;;;6.53;3.90;;;9.60;99.90;;;;;;5013687;28;20196;-76
2023/05/20 01:59:50;;;;;;;7.30;4.47;;;9.60;99.90;;;;;;5012592;28;20554;-77
2023/05/20 02:02:16;;;;;;;10.13;4.37;;;9.50;99.90;;;;;;5016146;28;20168;-76
2023/05/20 02:04:46;;;;;;;11.88;4.70;;;9.40;99.90;;;;;;5016240;28;20558;-77
2023/05/20 02:07:15;;;;;;;10.15;4.82;;;9.20;99.90;;;;;;5017625;28;20250;-76
2023/05/20 02:09:41;;;;;;;7.43;3.80;;;9.10;99.90;;;;;;5015855;28;20184;-76
2023/05/20 02:12:08;;;;;;;7.03;4.70;;;9.00;99.90;;;;;;5015799;28;20176;-76
2023/05/20 02:14:34;;;;;;;8.52;4.95;;;8.90;99.90;;;;;;5016211;28;20191;-76
2023/05/20 02:17:00;;;;;;;10.57;5.00;;;8.80;99.90;;;;;;5017598;28;20196;-77
2023/05/20 02:19:26;;;;;;;13.70;4.50;;;8.80;99.90;;;;;;5017717;28;20160;-77
2023/05/20 02:21:51;;;;;;;6.78;4.32;;;8.70;99.90;;;;;;5016024;28;20207;-77
2023/05/20 02:24:17;;;;;;;6.82;4.65;;;8.80;99.90;;;;;;5017319;28;20702;-77
2023/05/20 02:26:45;;;;;;;9.70;4.20;;;8.70;99.90;;;;;;5017068;28;20192;-76
2023/05/20 02:29:11;;;;;;;10.43;4.80;;;8.60;99.90;;;;;;5015582;28;20184;-77
2023/05/20 02:31:37;;;;;;;6.73;4.50;;;8.60;99.90;;;;;;5017097;28;20168;-77
2023/05/20 02:34:03;;;;;;;9.48;4.55;;;8.60;99.90;;;;;;5017143;28;20243;-77
2023/05/20 02:36:31;;;;;;;7.10;4.30;;;8.70;99.90;;;;;;5017011;28;20572;-77
2023/05/20 02:38:56;;;;;;;7.60;4.43;;;8.90;99.90;;;;;;5017137;28;20183;-77
2023/05/20 02:41:22;;;;;;;8.77;4.50;;;9.00;99.90;;;;;;5016803;28;20168;-77
2023/05/20 02:43:48;;;;;;;8.07;4.50;;;9.10;99.90;;;;;;5016702;28;20199;-77
2023/05/20 02:46:14;;;;;;;7.00;4.33;;;9.20;99.90;;;;;;5016811;28;20275;-77
2023/05/20 02:48:40;;;;;;;6.38;4.60;;;9.20;99.90;;;;;;5016786;28;20168;-77
2023/05/20 02:51:06;;;;;;;8.75;5.03;;;9.20;99.90;;;;;;5015623;28;20573;-77
2023/05/20 02:53:32;;;;;;;7.05;4.28;;;9.20;99.90;;;;;;5015349;28;20609;-76
2023/05/20 02:55:58;;;;;;;5.55;4.47;;;9.10;99.90;;;;;;5015341;28;20203;-77
2023/05/20 02:58:25;;;;;;;5.63;4.03;;;9.10;99.90;;;;;;5015294;28;20663;-77
2023/05/20 03:00:56;;;;;;;8.90;4.80;;;9.10;99.90;;;;;;5016655;28;20180;-77
2023/05/20 03:03:24;;;;;;;7.30;4.27;;;9.10;99.90;;;;;;5017030;28;20196;-77
2023/05/20 03:05:50;;;;;;;4.93;4.13;;;9.10;99.90;;;;;;5015358;28;20230;-77
2023/05/20 03:08:17;;;;;;;5.03;4.50;;;9.20;99.90;;;;;;5016820;28;20636;-76
2023/05/20 03:10:43;;;;;;;7.07;4.90;;;9.20;99.90;;;;;;5016927;28;20176;-77
2023/05/20 03:13:10;;;;;;;9.63;4.47;;;9.30;99.90;;;;;;5016809;28;20190;-76
2023/05/20 03:15:39;;;;;;;9.27;4.50;;;9.20;99.90;;;;;;5015482;28;20208;-76
2023/05/20 03:18:07;;;;;;;13.13;4.63;;;9.20;99.90;;;;;;5015256;28;20195;-77
2023/05/20 03:20:37;;;;;;;10.82;4.35;;;9.20;99.90;;;;;;5015001;28;20176;-77
2023/05/20 03:23:03;;;;;;;7.87;5.30;;;9.20;99.90;;;;;;5014756;28;20203;-77
2023/05/20 03:25:30;;;;;;;12.20;5.05;;;9.20;99.90;;;;;;5014808;28;20848;-76
2023/05/20 03:27:58;;;;;;;6.65;4.70;;;9.30;99.90;;;;;;5015765;28;20175;-76
2023/05/20 03:30:24;;;;;;;7.20;4.32;;;9.30;99.90;;;;;;5016235;28;20524;-76
2023/05/20 03:32:50;;;;;;;9.05;4.80;;;9.30;99.90;;;;;;5015916;28;20199;-75
2023/05/20 03:35:16;;;;;;;9.67;4.53;;;9.20;99.90;;;;;;5014610;28;20721;-77
2023/05/20 03:37:42;;;;;;;6.45;5.22;;;9.00;99.90;;;;;;5014173;28;20183;-77
2023/05/20 03:40:11;;;;;;;6.40;4.77;;;8.90;99.90;;;;;;5015847;28;20258;-76
2023/05/20 03:42:38;;;;;;;7.47;4.78;;;8.80;99.90;;;;;;5015826;28;20204;-77
2023/05/20 03:45:05;;;;;;;7.65;5.28;;;8.90;99.90;;;;;;5014393;28;20191;-76
2023/05/20 03:47:31;;;;;;;6.80;4.70;;;9.00;99.90;;;;;;5015908;28;20176;-76
2023/05/20 03:49:57;;;;;;;5.40;4.45;;;9.00;99.90;;;;;;5014688;28;20192;-76
2023/05/20 03:52:23;;;;;;;7.17;5.10;;;9.10;99.90;;;;;;5015695;28;20263;-76
2023/05/20 03:54:49;;;;;;;6.53;4.80;;;9.10;99.90;;;;;;5015844;28;20229;-76
2023/05/20 03:57:15;;;;;;;10.63;5.17;;;9.20;99.90;;;;;;5014271;28;20278;-77
2023/05/20 03:59:41;;;;;;;6.43;4.83;;;9.20;99.90;;;;;;5015935;28;20172;-77
2023/05/20 04:02:07;;;;;;;7.90;5.17;;;9.30;99.90;;;;;;5015687;28;20179;-77
2023/05/20 04:04:32;;;;;;;5.40;4.55;;;9.30;99.90;;;;;;5015551;28;20738;-77
2023/05/20 04:07:02;;;;;;;5.00;4.30;;;9.30;99.90;;;;;;5013941;28;20283;-77
2023/05/20 04:09:27;;;;;;;6.87;4.63;;;9.40;99.90;;;;;;5015270;28;20168;-77
2023/05/20 04:11:53;;;;;;;7.23;4.43;;;9.50;99.90;;;;;;5015487;28;20596;-77
2023/05/20 04:14:19;;;;;;;7.20;4.53;;;9.40;99.90;;;;;;5013727;28;20195;-76
2023/05/20 04:16:45;;;;;;;9.63;5.03;;;9.40;99.90;;;;;;5013792;28;20286;-77
2023/05/20 04:19:11;;;;;;;8.77;4.57;;;9.40;99.90;;;;;;5013709;28;20206;-77
2023/05/20 04:21:37;;;;;;;5.97;4.60;;;9.50;99.90;;;;;;5013621;28;20184;-76
2023/05/20 04:24:04;;;;;;;7.53;4.90;;;9.60;99.90;;;;;;5012931;28;20302;-76
2023/05/20 04:26:30;;;;;;;5.67;4.93;;;9.60;99.90;;;;;;5013519;28;20202;-76
2023/05/20 04:28:57;;;;;;;7.95;5.10;;;9.70;99.90;;;;;;5014684;28;20214;-77
2023/05/20 04:31:27;;;;;;;5.07;4.57;;;9.70;99.90;;;;;;5013764;28;20668;-77
2023/05/20 04:33:53;;;;;;;5.97;5.37;;;9.80;99.90;;;;;;5014965;28;20184;-76
2023/05/20 04:36:19;;;;;;;6.32;5.35;;;9.90;99.90;;;;;;5013438;28;20691;-76
2023/05/20 04:38:46;;;;;;;8.48;5.00;;;9.80;99.90;;;;;;5014853;28;20175;-76
2023/05/20 04:41:11;;;;;;;7.80;4.77;;;9.80;99.90;;;;;;5013593;28;20176;-76
2023/05/20 04:43:38;;;;;;;7.80;4.65;;;9.90;99.90;;;;;;5013458;28;20214;-76
2023/05/20 04:46:04;;;;;;;5.07;4.20;;;10.00;99.90;;;;;;5014034;28;20250;-76
2023/05/20 04:48:31;;;;;;;6.10;4.60;;;10.10;99.90;;;;;;5013665;28;20171;-77
2023/05/20 04:50:57;;;;;;;5.60;4.60;;;10.20;99.90;;;;;;5015118;28;20644;-76
2023/05/20 04:53:23;;;;;;;5.30;4.40;;;10.30;99.90;;;;;;5015579;28;20186;-76
2023/05/20 04:55:52;;;;;;;6.25;4.90;;;10.40;99.90;;;;;;5015799;28;20210;-77
2023/05/20 04:58:18;;;;;;;8.10;4.90;;;10.40;99.90;;;;;;5015935;28;20171;-77
2023/05/20 05:00:45;;;;;;;6.85;4.80;;;10.50;99.90;;;;;;5014039;28;20204;-77
2023/05/20 05:03:11;;;;;;;8.85;4.57;;;10.60;99.90;;;;;;5013462;28;20280;-76
2023/05/20 05:05:41;;;;;;;7.30;4.57;;;10.70;99.90;;;;;;5014248;28;20758;-76
2023/05/20 05:08:08;;;;;;;5.90;4.13;;;10.80;99.90;;;;;;5014734;28;20172;-76
2023/05/20 05:10:34;;;;;;;5.85;4.43;;;10.90;99.90;;;;;;5013058;28;20183;-76
2023/05/20 05:13:00;;;;;;;9.95;4.93;;;11.00;99.90;;;;;;5013187;28;20672;-76
2023/05/20 05:15:27;;;;;;;4.82;4.05;;;11.00;99.90;;;;;;5013393;28;20212;-76
2023/05/20 05:17:53;;;;;;;5.88;4.75;;;11.10;99.90;;;;;;5013292;28;20175;-76
2023/05/20 05:20:19;;;;;;;8.65;5.15;;;11.20;99.90;;;;;;5014448;28;20186;-76
2023/05/20 05:22:45;;;;;;;6.03;4.32;;;11.30;99.90;;;;;;5013184;28;20673;-77
2023/05/20 05:25:11;;;;;;;5.30;4.30;;;11.30;99.90;;;;;;5013109;28;20604;-76
2023/05/20 05:27:38;;;;;;;6.38;4.97;;;11.30;99.90;;;;;;5013177;28;20209;-76
2023/05/20 05:30:06;;;;;;;8.15;4.72;;;11.40;99.90;;;;;;5014381;28;20179;-76
2023/05/20 05:32:32;;;;;;;5.00;4.32;;;11.40;99.90;;;;;;5014516;28;20194;-76
2023/05/20 05:34:57;;;;;;;5.65;4.72;;;11.40;99.90;;;;;;5015324;28;20548;-77
2023/05/20 05:37:23;;;;;;;7.97;4.93;;;11.40;99.90;;;;;;5020232;28;20205;-76
2023/05/20 05:39:49;;;;;;;7.28;5.03;;;11.40;99.90;;;;;;5023867;28;20172;-76
2023/05/20 05:42:15;;;;;;;6.50;5.10;;;11.30;99.90;;;;;;5018129;28;20548;-77
2023/05/20 05:44:41;;;;;;;8.13;5.20;;;11.30;99.90;;;;;;5016862;28;20608;-76
2023/05/20 05:47:07;;;;;;;8.98;4.82;;;11.30;99.90;;;;;;5017101;28;20286;-77
2023/05/20 05:49:33;;;;;;;10.15;5.00;;;11.40;99.90;;;;;;5018023;28;20163;-75
2023/05/20 05:51:59;;;;;;;6.60;4.70;;;11.50;99.90;;;;;;5016842;28;20645;-75
2023/05/20 05:54:25;;;;;;;8.93;5.22;;;11.50;99.90;;;;;;5017785;28;20180;-75
2023/05/20 05:56:51;;;;;;;5.97;5.00;;;11.60;99.90;;;;;;5016375;28;20199;-75
2023/05/20 05:59:17;;;;;;;9.55;5.10;;;11.60;99.90;;;;;;5017598;28;20207;-75
2023/05/20 06:01:43;;;;;;;7.93;4.88;;;11.70;99.90;;;;;;5016541;28;20210;-75
2023/05/20 06:04:09;;;;;;;7.22;5.65;;;11.70;99.90;;;;;;5017588;28;20668;-75
2023/05/20 06:06:35;;;;;;;5.72;4.90;;;11.70;99.90;;;;;;5017443;28;20192;-75
2023/05/20 06:09:01;;;;;;;7.75;5.78;;;11.80;99.90;;;;;;5016304;28;20313;-75
2023/05/20 06:11:27;;;;;;;8.05;4.93;;;11.90;99.90;;;;;;5016199;28;20646;-75
2023/05/20 06:13:53;;;;;;;6.80;4.88;;;11.90;99.90;;;;;;5017393;28;20543;-75
2023/05/20 06:16:19;;;;;;;9.68;5.25;;;12.00;99.90;;;;;;5016108;28;20546;-75
2023/05/20 06:18:45;;;;;;;5.55;5.05;;;12.10;99.90;;;;;;5015724;28;20195;-75
2023/05/20 06:21:11;;;;;;;6.80;4.78;;;12.10;99.90;;;;;;5016154;28;20215;-75
2023/05/20 06:23:37;;;;;;;7.60;5.00;;;12.20;99.90;;;;;;5015851;28;20625;-75
2023/05/20 06:26:03;;;;;;;5.55;4.78;;;12.20;99.90;;;;;;5016566;28;20209;-75
2023/05/20 06:28:29;;;;;;;7.40;5.05;;;12.20;99.90;;;;;;5017130;28;20180;-75
2023/05/20 06:30:56;;;;;;;6.30;5.03;;;12.30;99.90;;;;;;5015797;28;20172;-77
2023/05/20 06:33:26;;;;;;;6.63;5.30;;;12.40;99.90;;;;;;5015988;28;20656;-75
2023/05/20 06:35:55;;;;;;;7.68;5.13;;;12.40;99.90;;;;;;5015904;28;20219;-75
2023/05/20 06:38:21;;;;;;;5.40;4.85;;;12.50;99.90;;;;;;5015957;28;20184;-75
2023/05/20 06:40:48;;;;;;;7.65;5.07;;;12.50;99.90;;;;;;5017370;28;20179;-75
2023/05/20 06:43:15;;;;;;;8.43;5.15;;;12.60;99.90;;;;;;5017470;28;20196;-75
2023/05/20 06:45:41;;;;;;;9.05;5.60;;;12.70;99.90;;;;;;5017438;28;20196;-75
2023/05/20 06:48:07;;;;;;;6.05;4.65;;;12.70;99.90;;;;;;5015212;28;20314;-76
2023/05/20 06:50:33;;;;;;;6.80;5.22;;;12.80;99.90;;;;;;5016186;28;20187;-76
2023/05/20 06:52:59;;;;;;;6.25;5.15;;;12.80;99.90;;;;;;5016092;28;20328;-75
2023/05/20 06:55:25;;;;;;;7.80;4.97;;;12.70;99.90;;;;;;5015658;28;20258;-75
2023/05/20 06:57:51;;;;;;;6.30;5.03;;;12.70;99.90;;;;;;5017039;28;20176;-75
2023/05/20 07:00:17;;;;;;;5.95;5.03;;;12.80;99.90;;;;;;5016795;28;20266;-75
2023/05/20 07:02:43;;;;;;;6.57;5.35;;;12.90;99.90;;;;;;5015176;28;20243;-75
2023/05/20 07:05:09;;;;;;;7.47;5.57;;;12.90;99.90;;;;;;5016787;28;20176;-77
2023/05/20 07:07:35;;;;;;;7.25;5.40;;;13.00;99.90;;;;;;5016752;28;20172;-78
2023/05/20 07:10:04;;;;;;;7.80;5.25;;;13.10;99.90;;;;;;5016219;28;20222;-76
2023/05/20 07:12:33;;;;;;;8.15;5.30;;;13.10;99.90;;;;;;5016051;28;20172;-76
2023/05/20 07:14:59;;;;;;;9.50;5.60;;;13.20;99.90;;;;;;5016452;28;20171;-76
2023/05/20 07:17:25;;;;;;;9.75;5.75;;;13.20;99.90;;;;;;5016401;28;20230;-77
2023/05/20 07:19:51;;;;;;;8.65;5.78;;;13.20;99.90;;;;;;5015932;28;20176;-76
2023/05/20 07:22:17;;;;;;;7.47;5.55;;;13.20;99.90;;;;;;5015886;28;20748;-76
2023/05/20 07:24:44;;;;;;;8.43;5.55;;;13.30;99.90;;;;;;5016123;28;20191;-76
2023/05/20 07:27:10;;;;;;;9.13;5.80;;;13.30;99.90;;;;;;5015905;28;20257;-77
2023/05/20 07:29:36;;;;;;;6.85;5.40;;;13.40;99.90;;;;;;5014412;28;20696;-76
2023/05/20 07:32:03;;;;;;;7.35;5.65;;;13.50;99.90;;;;;;5014390;28;20191;-76
2023/05/20 07:34:28;;;;;;;13.32;5.85;;;13.60;99.90;;;;;;5015714;28;20184;-76
2023/05/20 07:36:55;;;;;;;9.07;5.38;;;13.70;99.90;;;;;;5014918;28;20269;-76
2023/05/20 07:39:24;;;;;;;9.48;5.93;;;13.80;99.90;;;;;;5015754;28;20194;-76
2023/05/20 07:41:54;;;;;;;9.23;5.43;;;13.70;99.90;;;;;;5014371;28;20186;-76
2023/05/20 07:44:25;;;;;;;9.45;5.38;;;13.70;99.90;;;;;;5014382;28;20238;-76
2023/05/20 07:46:51;;;;;;;9.23;5.50;;;13.80;99.90;;;;;;5011312;28;20208;-76
2023/05/20 07:49:17;;;;;;;9.15;6.05;;;13.70;99.90;;;;;;5015818;28;20180;-78
2023/05/20 07:51:43;;;;;;;9.23;5.80;;;13.70;99.90;;;;;;5014698;28;20210;-77
2023/05/20 07:54:09;;;;;;;7.15;5.70;;;13.80;99.90;;;;;;5015881;28;20188;-77
2023/05/20 07:56:34;;;;;;;11.02;6.05;;;13.90;99.90;;;;;;5015001;28;20210;-78
2023/05/20 07:59:02;;;;;;;8.00;6.07;;;14.00;99.90;;;;;;5015892;28;20310;-78
2023/05/20 08:01:28;;;;;;;10.70;6.55;;;14.00;99.90;;;;;;5015066;28;20191;-78
2023/05/20 08:03:54;;;;;;;8.55;6.18;;;13.90;99.90;;;;;;5014930;28;20208;-78
2023/05/20 08:06:20;;;;;;;10.80;5.95;;;14.00;99.90;;;;;;5016687;28;20204;-78
2023/05/20 08:08:46;;;;;;;7.20;5.88;;;14.00;99.90;;;;;;5017053;28;20171;-79
2023/05/20 08:11:12;;;;;;;12.02;6.80;;;14.10;99.90;;;;;;5016234;28;20226;-80
2023/05/20 08:13:38;;;;;;;10.02;5.75;;;14.00;99.90;;;;;;5015751;28;20176;-79
2023/05/20 08:16:05;;;;;;;9.05;6.38;;;14.00;99.90;;;;;;5014566;28;20672;-79
2023/05/20 08:18:32;;;;;;;10.43;6.30;;;14.10;99.90;;;;;;5016095;28;20175;-80
2023/05/20 08:20:58;;;;;;;8.32;6.57;;;14.20;99.90;;;;;;5017561;28;20214;-79
2023/05/20 08:23:24;;;;;;;10.38;6.47;;;14.20;99.90;;;;;;5015777;28;20200;-79
2023/05/20 08:25:50;;;;;;;8.32;6.43;;;14.10;99.90;;;;;;5016323;28;20596;-79
2023/05/20 08:28:16;;;;;;;9.60;7.03;;;14.00;99.90;;;;;;5016442;28;20222;-79
2023/05/20 08:30:42;;;;;;;8.98;6.55;;;14.00;99.90;;;;;;5016328;28;20156;-79
2023/05/20 08:33:08;;;;;;;7.95;6.70;;;13.90;99.90;;;;;;5014298;28;20195;-79
2023/05/20 08:35:34;;;;;;;10.80;7.03;;;13.90;99.90;;;;;;5015656;28;20290;-80
2023/05/20 08:38:00;;;;;;;8.88;7.10;;;13.90;99.90;;;;;;5015394;28;20176;-79
2023/05/20 08:40:26;;;;;;;9.75;7.10;;;14.00;99.90;;;;;;5014089;28;20568;-79
2023/05/20 08:42:52;;;;;;;11.00;6.57;;;13.90;99.90;;;;;;5015579;28;20187;-79
2023/05/20 08:45:20;;;;;;;9.88;7.43;;;14.00;99.90;;;;;;5015531;28;20187;-79
2023/05/20 08:47:46;;;;;;;9.90;6.80;;;14.10;99.90;;;;;;5014413;28;20667;-79
2023/05/20 08:50:13;;;;;;;11.43;7.43;;;14.10;99.90;;;;;;5014110;28;20543;-79
2023/05/20 08:52:43;;;;;;;11.07;7.65;;;14.00;99.90;;;;;;5015026;28;20254;-79
2023/05/20 08:55:32;;;;;;;13.20;7.47;;;14.10;99.90;;;;;;5013816;28;20226;-79
2023/05/20 08:57:58;;;;;;;9.85;7.05;;;14.10;99.90;;;;;;5015122;28;20157;-79
2023/05/20 09:00:27;;;;;;;9.27;7.05;;;14.20;99.90;;;;;;5015390;28;20628;-79
2023/05/20 09:02:54;;;;;;;9.63;7.22;;;14.20;99.90;;;;;;5013546;28;20298;-79
2023/05/20 09:05:21;;;;;;;10.48;8.02;;;14.40;99.90;;;;;;5013654;28;20242;-78
2023/05/20 09:07:47;;;;;;;10.02;7.65;;;14.30;99.90;;;;;;5013526;28;20215;-79
2023/05/20 09:10:13;;;;;;;8.50;6.97;;;14.30;99.90;;;;;;5014358;28;20207;-79
2023/05/20 09:12:39;;;;;;;11.82;7.22;;;14.40;99.90;;;;;;5013537;28;20640;-78
2023/05/20 09:15:06;;;;;;;11.23;7.53;;;14.50;99.90;;;;;;5013984;28;20187;-79
2023/05/20 09:17:35;;;;;;;12.38;7.50;;;14.60;99.90;;;;;;5014972;28;20254;-79
2023/05/20 09:20:05;;;;;;;11.63;7.60;;;14.70;99.90;;;;;;5013459;28;20179;-79
2023/05/20 09:22:30;;;;;;;12.85;8.20;;;14.60;99.90;;;;;;5014403;28;20683;-79
2023/05/20 09:24:56;;;;;;;10.98;8.10;;;14.60;99.90;;;;;;5013655;28;20176;-79
2023/05/20 09:27:23;;;;;;;10.23;7.80;;;14.60;99.90;;;;;;5014803;28;20279;-79
2023/05/20 09:29:50;;;;;;;10.38;8.15;;;14.60;99.90;;;;;;5013398;28;20176;-79
2023/05/20 09:32:19;;;;;;;10.45;7.85;;;14.50;99.90;;;;;;5013353;28;20192;-79
2023/05/20 09:34:46;;;;;;;11.95;7.47;;;14.50;99.90;;;;;;5014918;28;20225;-80
2023/05/20 09:37:16;;;;;;;10.63;8.18;;;14.50;99.90;;;;;;5015181;28;20656;-79
2023/05/20 09:39:58;;;;;;;11.20;7.88;;;14.60;99.90;;;;;;5013668;28;20172;-79
2023/05/20 09:42:50;;;;;;;10.85;8.43;;;14.60;99.90;;;;;;5013627;28;20246;-79
2023/05/20 09:45:16;;;;;;;12.65;7.68;;;14.70;99.90;;;;;;5014001;28;20175;-80
2023/05/20 09:47:43;;;;;;;12.85;9.27;;;14.70;99.90;;;;;;5014345;28;20172;-80
2023/05/20 09:50:09;;;;;;;9.68;8.10;;;14.80;99.90;;;;;;5014451;28;20239;-79
2023/05/20 09:52:37;;;;;;;11.48;8.32;;;14.70;99.90;;;;;;5013175;28;20175;-79
2023/05/20 09:55:05;;;;;;;10.70;7.85;;;14.80;99.90;;;;;;5015259;28;20180;-79
2023/05/20 09:57:35;;;;;;;9.93;7.57;;;15.00;99.90;;;;;;5013663;28;20203;-80
2023/05/20 10:00:03;;;;;;;11.88;7.72;;;15.00;99.90;;;;;;5012792;28;20168;-79
2023/05/20 10:02:29;;;;;;;9.93;7.97;;;15.10;99.90;;;;;;5014638;28;20186;-79
2023/05/20 10:04:58;;;;;;;12.68;8.07;;;15.10;99.90;;;;;;5014611;28;20199;-77
2023/05/20 10:07:34;;;;;;;10.93;8.50;;;15.20;99.90;;;;;;5015011;28;20200;-79
2023/05/20 10:10:37;;;;;;;12.32;8.80;;;15.40;99.90;;;;;;5015390;28;20170;-79
2023/05/20 10:13:36;;;;;;;11.25;8.43;;;15.60;99.90;;;;;;5013522;28;20648;-79
2023/05/20 10:16:35;;;;;;;10.55;8.13;;;15.80;91.70;;;;;;5015232;28;20203;-79
2023/05/20 10:19:25;;;;;;;13.05;7.47;;;16.10;99.90;;;;;;5015070;28;20164;-78
2023/05/20 10:22:06;;;;;;;10.50;7.53;;;16.20;99.90;;;;;;5014431;28;20180;-79
2023/05/20 10:24:43;;;;;;;12.13;7.55;;;16.60;75.10;;;;;;5017129;28;20211;-79
2023/05/20 10:27:14;;;;;;;9.50;6.80;;;16.70;99.90;;;;;;5017278;28;20371;-80
2023/05/20 10:29:44;;;;;;;9.45;7.25;;;16.90;99.90;;;;;;5019367;28;20235;-80
2023/05/20 10:32:10;;;;;;;10.25;7.75;;;17.20;99.90;;;;;;5020657;28;20200;-78
2023/05/20 10:34:49;;;;;;;10.80;7.72;;;17.50;98.10;;;;;;5019127;28;20205;-79
2023/05/20 10:37:32;;;;;;;10.43;8.13;;;17.70;99.90;;;;;;4997873;28;20208;-79
2023/05/20 10:40:10;;;;;;;8.48;6.80;;;18.00;99.90;;;;;;4997774;28;20180;-78
2023/05/20 10:42:36;;;;;;;12.10;7.22;;;18.30;36.60;;;;;;4999600;28;20172;-78
2023/05/20 10:45:03;;;;;;;8.25;6.40;;;18.40;1.00;;;;;;5000027;28;20542;-79
2023/05/20 10:47:29;;;;;;;9.68;7.03;;;18.70;1.00;;;;;;5000748;28;20197;-79
2023/05/20 10:49:56;;;;;;;9.55;6.45;;;18.90;19.10;;;;;;5005111;28;20184;-79
2023/05/20 10:52:23;;;;;;;9.57;6.55;;;18.90;1.00;;;;;;5002172;28;20756;-79
2023/05/20 10:54:56;;;;;;;9.90;7.13;;;19.00;32.40;;;;;;5004937;28;20180;-77
2023/05/20 10:57:24;;;;;;;9.35;7.07;;;18.90;99.90;;;;;;5001428;28;20192;-79
2023/05/20 10:59:51;;;;;;;9.45;7.22;;;18.80;99.90;;;;;;5001279;28;20231;-78
2023/05/20 11:02:18;;;;;;;9.88;6.70;;;18.60;99.90;;;;;;5001105;28;20604;-78
2023/05/20 11:04:45;;;;;;;11.45;7.25;;;18.50;99.90;;;;;;5004087;28;20208;-79
2023/05/20 11:07:12;;;;;;;8.48;6.82;;;18.50;99.90;;;;;;5019255;28;20206;-79
2023/05/20 11:09:38;;;;;;;9.07;6.80;;;18.60;99.90;;;;;;5021839;28;20171;-78
2023/05/20 11:12:04;;;;;;;8.10;6.43;;;18.50;99.90;;;;;;5019963;28;20176;-78
2023/05/20 11:14:30;;;;;;;10.98;7.05;;;18.30;99.90;;;;;;5017376;28;20176;-77
2023/05/20 11:16:59;;;;;;;9.02;6.47;;;18.20;99.90;;;;;;5017942;28;20196;-80
2023/05/20 11:19:26;;;;;;;8.40;6.38;;;18.10;99.90;;;;;;5017662;28;20176;-77
2023/05/20 11:21:52;;;;;;;8.23;6.57;;;18.00;99.90;;;;;;5016050;28;20179;-79
2023/05/20 11:24:26;;;;;;;8.93;6.63;;;18.00;99.90;;;;;;5019283;28;20279;-79
2023/05/20 11:26:56;;;;;;;8.07;6.43;;;18.10;99.90;;;;;;5018377;28;20218;-77
2023/05/20 11:29:22;;;;;;;9.85;6.60;;;18.20;99.90;;;;;;5020120;28;20266;-77
2023/05/20 11:31:50;;;;;;;11.10;6.45;;;18.40;99.90;;;;;;5018385;28;20231;-78
2023/05/20 11:34:18;;;;;;;7.80;6.43;;;18.40;99.90;;;;;;5015796;28;20565;-76
2023/05/20 11:36:44;;;;;;;8.68;6.28;;;18.40;99.90;;;;;;5014004;28;20648;-75
2023/05/20 11:39:12;;;;;;;8.95;6.22;;;18.50;99.90;;;;;;5015840;28;20156;-76
2023/05/20 11:41:38;;;;;;;8.30;5.22;;;18.60;99.90;;;;;;5015830;28;20195;-75
2023/05/20 11:44:08;;;;;;;7.25;5.10;;;18.60;99.90;;;;;;5013919;28;20677;-76
2023/05/20 11:46:45;;;;;;;7.57;5.18;;;18.70;99.90;;;;;;5013770;28;20196;-75
2023/05/20 11:49:15;;;;;;;8.93;6.18;;;18.70;99.90;;;;;;5014093;28;20191;-74
2023/05/20 11:51:42;;;;;;;8.25;5.53;;;18.70;99.90;;;;;;5015383;28;20178;-75
2023/05/20 11:54:09;;;;;;;7.28;5.00;;;18.60;99.90;;;;;;5015463;28;20211;-75
2023/05/20 11:56:36;;;;;;;8.18;5.70;;;18.60;99.90;;;;;;5014624;28;20211;-75
2023/05/20 11:59:04;;;;;;;8.07;5.38;;;18.50;99.90;;;;;;5014065;28;20180;-74
2023/05/20 12:01:53;;;;;;;5.70;4.78;;;18.40;99.90;;;;;;5014289;28;20262;-76
2023/05/20 12:04:19;;;;;;;7.93;5.40;;;18.30;99.90;;;;;;5016826;28;20196;-76
2023/05/20 12:06:45;;;;;;;7.60;5.40;;;18.30;99.90;;;;;;5018555;28;20270;-75
2023/05/20 12:09:12;;;;;;;11.13;6.00;;;18.30;99.90;;;;;;5016212;28;20275;-76
2023/05/20 12:11:40;;;;;;;11.38;5.63;;;18.30;99.90;;;;;;5016448;28;20172;-75
2023/05/20 12:14:07;;;;;;;8.60;5.40;;;18.20;99.90;;;;;;5015918;28;20161;-77
2023/05/20 12:16:33;;;;;;;7.93;5.05;;;18.10;99.90;;;;;;5015202;28;20699;-76
2023/05/20 12:19:00;;;;;;;8.38;5.60;;;18.10;99.90;;;;;;5013832;28;20184;-77
2023/05/20 12:21:26;;;;;;;6.95;5.85;;;18.20;99.90;;;;;;5015265;28;20171;-76
2023/05/20 12:23:56;;;;;;;9.02;5.95;;;18.30;1.00;;;;;;5016539;28;20695;-83
2023/05/20 12:26:23;;;;;;;8.60;5.90;;;18.20;1.00;;;;;;5018123;28;20196;-78
2023/05/20 12:28:49;;;;;;;7.43;5.57;;;18.20;1.00;;;;;;5018364;28;20187;-81
2023/05/20 12:31:19;;;;;;;8.25;4.93;;;18.10;1.00;;;;;;5022011;28;20171;-80
2023/05/20 12:33:45;;;;;;;7.43;5.47;;;18.10;1.00;;;;;;5024875;28;20195;-80
2023/05/20 12:36:11;;;;;;;7.47;4.80;;;18.10;1.00;;;;;;5020558;28;20207;-81
2023/05/20 12:38:37;;;;;;;6.75;5.10;;;18.10;1.00;;;;;;5021096;28;20198;-81
2023/05/20 12:41:03;;;;;;;6.32;5.10;;;18.20;1.00;;;;;;5019063;28;20266;-81
2023/05/20 12:43:29;;;;;;;7.78;5.72;;;18.40;1.00;;;;;;5019490;28;20558;-80
2023/05/20 12:45:55;;;;;;;7.88;5.85;;;18.40;1.00;;;;;;5019203;28;20200;-79
2023/05/20 12:48:20;;;;;;;7.63;5.85;;;18.40;99.90;;;;;;5021600;28;20156;-79